createdAt,value
2022-08-05T00:01:30.684Z,40.57
2022-08-05T00:04:03.692Z,40.95
2022-08-05T00:06:36.110Z,40.48
2022-08-05T00:09:03.348Z,40.75
2022-08-05T00:11:35.160Z,40.75
2022-08-05T00:14:17.083Z,40.45
2022-08-05T00:16:52.784Z,40.68
2022-08-05T00:19:22.299Z,40.64
2022-08-05T00:21:49.780Z,40.65
2022-08-05T00:24:19.351Z,40.72
2022-08-05T00:26:52.937Z,40.73
2022-08-05T00:29:22.646Z,40.69
2022-08-05T00:32:10.562Z,41.10
2022-08-05T00:34:55.858Z,40.94
2022-08-05T00:37:27.505Z,40.71
2022-08-05T00:40:14.140Z,40.79
2022-08-05T00:42:48.212Z,40.68
2022-08-05T00:45:16.254Z,41.08
2022-08-05T00:47:56.657Z,40.76
2022-08-05T00:50:25.454Z,40.96
2022-08-05T00:52:53.230Z,41.01
2022-08-05T00:55:20.547Z,40.89
2022-08-05T00:57:57.906Z,40.83
2022-08-05T01:00:26.255Z,40.86
2022-08-05T01:02:53.338Z,40.74
2022-08-05T01:05:20.391Z,40.59
2022-08-05T01:08:29.807Z,40.80
2022-08-05T01:10:34.623Z,40.88
2022-08-05T01:13:13.083Z,40.96
2022-08-05T01:15:47.787Z,41.13
2022-08-05T01:18:15.161Z,40.90
2022-08-05T01:20:42.756Z,40.72
2022-08-05T01:23:15.295Z,40.91
2022-08-05T01:25:53.394Z,40.92
2022-08-05T01:28:20.915Z,40.97
2022-08-05T01:30:53.940Z,40.98
2022-08-05T01:33:25.383Z,41.19
2022-08-05T01:35:53.515Z,40.99
2022-08-05T01:38:27.319Z,40.80
2022-08-05T01:40:56.477Z,40.99
2022-08-05T01:43:24.292Z,40.99
2022-08-05T01:45:56.209Z,41.18
2022-08-05T01:48:24.036Z,41.08
2022-08-05T01:50:51.497Z,41.17
2022-08-05T01:53:57.086Z,41.50
2022-08-05T01:56:06.364Z,41.45
2022-08-05T01:58:44.927Z,41.32
2022-08-05T02:01:12.543Z,41.31
2022-08-05T02:03:39.868Z,41.36
2022-08-05T02:06:12.683Z,41.35
2022-08-05T02:08:58.536Z,41.15
2022-08-05T02:11:33.375Z,41.51
2022-08-05T02:14:00.969Z,41.55
2022-08-05T02:16:29.301Z,41.82
2022-08-05T02:18:56.647Z,41.52
2022-08-05T02:21:24.330Z,41.55
2022-08-05T02:23:52.796Z,41.60
2022-08-05T02:26:19.840Z,41.58
2022-08-05T02:28:48.967Z,41.72
2022-08-05T02:31:16.648Z,41.49
2022-08-05T02:33:48.450Z,41.84
2022-08-05T02:36:16.021Z,41.54
2022-08-05T02:38:43.966Z,41.88
2022-08-05T02:41:20.769Z,41.73
2022-08-05T02:44:02.211Z,41.72
2022-08-05T02:46:34.051Z,41.86
2022-08-05T02:49:01.546Z,41.81
2022-08-05T02:52:03.393Z,41.60
2022-08-05T02:54:35.047Z,41.88
2022-08-05T02:57:03.068Z,42.20
2022-08-05T02:59:48.082Z,42.14
2022-08-05T03:02:17.882Z,41.68
2022-08-05T03:04:44.943Z,41.71
2022-08-05T03:07:24.660Z,42.04
2022-08-05T03:09:59.400Z,41.94
2022-08-05T03:12:26.451Z,41.97
2022-08-05T03:14:53.492Z,42.03
2022-08-05T03:17:24.061Z,41.68
2022-08-05T03:19:52.099Z,41.97
2022-08-05T03:22:19.189Z,42.31
2022-08-05T03:25:11.634Z,41.85
2022-08-05T03:27:59.574Z,42.24
2022-08-05T03:30:30.241Z,42.41
2022-08-05T03:33:01.330Z,41.92
2022-08-05T03:35:28.825Z,42.10
2022-08-05T03:37:55.911Z,42.47
2022-08-05T03:40:31.998Z,42.00
2022-08-05T03:43:01.665Z,42.33
2022-08-05T03:45:57.216Z,42.21
2022-08-05T03:48:25.923Z,42.35
2022-08-05T03:50:53.962Z,42.28
2022-08-05T03:55:52.424Z,42.38
2022-08-05T03:56:17.206Z,42.27
2022-08-05T03:58:53.845Z,42.70
2022-08-05T04:01:21.161Z,42.64
2022-08-05T04:04:09.653Z,42.63
2022-08-05T04:06:35.631Z,42.17
2022-08-05T04:09:02.681Z,42.34
2022-08-05T04:11:50.503Z,42.20
2022-08-05T04:14:18.317Z,42.29
2022-08-05T04:16:45.399Z,42.26
2022-08-05T04:19:13.086Z,42.54
2022-08-05T04:22:09.916Z,42.76
2022-08-05T04:24:27.686Z,42.60
2022-08-05T04:26:54.920Z,42.53
2022-08-05T04:29:25.329Z,42.34
2022-08-05T04:31:54.335Z,42.63
2022-08-05T04:34:33.594Z,42.41
2022-08-05T04:37:03.169Z,42.77
2022-08-05T04:39:30.538Z,42.52
2022-08-05T04:41:57.607Z,42.82
2022-08-05T04:44:29.587Z,42.79
2022-08-05T04:46:58.533Z,42.80
2022-08-05T04:49:38.644Z,42.91
2022-08-05T04:52:12.734Z,42.91
2022-08-05T04:54:39.822Z,43.09
2022-08-05T04:57:06.863Z,43.26
2022-08-05T04:59:38.313Z,42.70
2022-08-05T05:02:36.871Z,42.88
2022-08-05T05:04:53.410Z,42.94
2022-08-05T05:07:32.243Z,43.01
2022-08-05T05:10:04.188Z,43.04
2022-08-05T05:12:31.327Z,43.09
2022-08-05T05:14:58.375Z,42.95
2022-08-05T05:17:57.193Z,43.16
2022-08-05T05:20:12.490Z,43.11
2022-08-05T05:22:40.699Z,42.84
2022-08-05T05:25:16.738Z,43.15
2022-08-05T05:27:53.737Z,43.00
2022-08-05T05:30:31.291Z,43.11
2022-08-05T05:33:03.838Z,42.75
2022-08-05T05:35:43.481Z,43.29
2022-08-05T05:38:13.545Z,43.06
2022-08-05T05:40:47.961Z,43.00
2022-08-05T05:43:28.193Z,43.30
2022-08-05T05:46:07.626Z,43.20
2022-08-05T05:48:41.865Z,42.82
2022-08-05T05:51:15.677Z,43.07
2022-08-05T05:53:53.992Z,43.37
2022-08-05T05:56:31.815Z,43.13
2022-08-05T05:59:02.887Z,43.08
2022-08-05T06:01:37.796Z,43.01
2022-08-05T06:04:05.791Z,42.95
2022-08-05T06:06:33.195Z,42.87
2022-08-05T06:09:01.986Z,42.86
2022-08-05T06:11:31.096Z,43.17
2022-08-05T06:13:58.386Z,43.12
2022-08-05T06:16:36.840Z,43.26
2022-08-05T06:19:05.898Z,42.87
2022-08-05T06:21:37.020Z,43.27
2022-08-05T06:24:04.873Z,42.85
2022-08-05T06:26:33.988Z,43.29
2022-08-05T06:29:03.719Z,43.07
2022-08-05T06:31:49.204Z,43.25
2022-08-05T06:34:19.966Z,42.96
2022-08-05T06:36:56.802Z,43.11
2022-08-05T06:39:27.125Z,43.00
2022-08-05T06:41:55.025Z,43.01
2022-08-05T06:44:22.920Z,42.79
2022-08-05T06:46:50.942Z,43.15
2022-08-05T06:49:18.975Z,43.22
2022-08-05T06:51:48.459Z,43.12
2022-08-05T06:54:19.018Z,43.11
2022-08-05T06:56:54.896Z,43.35
2022-08-05T06:59:38.896Z,42.92
2022-08-05T07:02:09.349Z,43.20
2022-08-05T07:04:36.478Z,43.09
2022-08-05T07:07:03.561Z,43.26
2022-08-05T07:09:40.444Z,42.78
2022-08-05T07:12:07.718Z,42.75
2022-08-05T07:14:54.247Z,42.54
2022-08-05T07:18:00.755Z,42.49
2022-08-05T07:20:32.098Z,42.64
2022-08-05T07:22:55.458Z,42.72
2022-08-05T07:25:56.231Z,42.61
2022-08-05T07:28:11.710Z,42.87
2022-08-05T07:30:39.946Z,42.46
2022-08-05T07:33:09.927Z,42.49
2022-08-05T07:36:02.373Z,42.42
2022-08-05T07:38:32.387Z,42.72
2022-08-05T07:41:16.874Z,42.52
2022-08-05T07:43:49.715Z,42.43
2022-08-05T07:46:24.466Z,42.18
2022-08-05T07:49:02.218Z,42.71
2022-08-05T07:51:40.261Z,42.61
2022-08-05T07:54:10.091Z,41.86
2022-08-05T07:57:00.033Z,42.02
2022-08-05T07:59:38.311Z,42.06
2022-08-05T08:02:15.448Z,42.21
2022-08-05T08:04:45.073Z,41.88
2022-08-05T08:07:12.396Z,42.04
2022-08-05T08:09:39.448Z,42.11
2022-08-05T08:12:16.506Z,42.10
2022-08-05T08:14:54.194Z,42.36
2022-08-05T08:17:21.828Z,42.09
2022-08-05T08:20:21.547Z,42.08
2022-08-05T08:22:36.109Z,42.01
2022-08-05T08:25:03.938Z,41.89
2022-08-05T08:27:47.431Z,42.26
2022-08-05T08:30:30.161Z,42.01
2022-08-05T08:33:02.557Z,42.36
2022-08-05T08:35:34.853Z,41.93
2022-08-05T08:38:07.799Z,42.04
2022-08-05T08:40:35.244Z,42.11
2022-08-05T08:44:56.392Z,41.84
2022-08-05T08:45:50.091Z,41.66
2022-08-05T08:48:36.189Z,41.59
2022-08-05T08:51:30.655Z,41.66
2022-08-05T08:53:53.231Z,42.03
2022-08-05T08:56:23.609Z,41.75
2022-08-05T08:58:54.569Z,41.89
2022-08-05T09:01:21.732Z,41.85
2022-08-05T09:03:55.459Z,41.47
2022-08-05T09:06:28.559Z,41.85
2022-08-05T09:08:57.143Z,41.73
2022-08-05T09:11:51.415Z,42.12
2022-08-05T09:14:58.978Z,41.95
2022-08-05T09:16:58.720Z,42.14
2022-08-05T09:19:27.986Z,41.95
2022-08-05T09:22:23.236Z,41.89
2022-08-05T09:24:50.599Z,41.55
2022-08-05T09:27:18.783Z,42.05
2022-08-05T09:30:06.527Z,41.89
2022-08-05T09:32:40.851Z,42.18
2022-08-05T09:35:09.960Z,42.29
2022-08-05T09:38:12.655Z,41.81
2022-08-05T09:40:34.792Z,42.15
2022-08-05T09:43:02.152Z,41.74
2022-08-05T09:46:07.339Z,41.91
2022-08-05T09:48:25.218Z,41.94
2022-08-05T09:50:54.150Z,41.50
2022-08-05T09:53:26.085Z,42.07
2022-08-05T09:56:13.327Z,41.63
2022-08-05T09:58:42.044Z,41.83
2022-08-05T10:01:14.895Z,41.86
2022-08-05T10:03:58.619Z,41.82
2022-08-05T10:06:27.712Z,42.26
2022-08-05T10:08:55.667Z,42.15
2022-08-05T10:11:22.904Z,42.07
2022-08-05T10:13:50.036Z,41.82
2022-08-05T10:16:21.858Z,41.57
2022-08-05T10:18:52.963Z,41.69
2022-08-05T10:21:20.025Z,41.71
2022-08-05T10:23:59.687Z,41.44
2022-08-05T10:26:31.598Z,41.41
2022-08-05T10:28:59.642Z,41.62
2022-08-05T10:32:52.141Z,41.40
2022-08-05T10:34:14.119Z,41.46
2022-08-05T10:36:41.344Z,41.26
2022-08-05T10:39:11.671Z,41.38
2022-08-05T10:41:46.406Z,41.25
2022-08-05T10:44:14.244Z,41.14
2022-08-05T10:46:43.621Z,41.24
2022-08-05T10:49:16.439Z,41.16
2022-08-05T10:51:48.650Z,41.13
2022-08-05T10:54:29.842Z,41.08
2022-08-05T10:56:59.829Z,41.11
2022-08-05T11:00:02.606Z,41.10
2022-08-05T11:02:37.847Z,40.99
2022-08-05T11:05:02.373Z,41.18
2022-08-05T11:07:33.084Z,40.79
2022-08-05T11:10:16.460Z,41.24
2022-08-05T11:12:50.488Z,41.02
2022-08-05T11:15:21.548Z,40.97
2022-08-05T11:18:09.553Z,41.14
2022-08-05T11:20:37.558Z,41.15
2022-08-05T11:23:10.440Z,40.56
2022-08-05T11:26:04.309Z,41.06
2022-08-05T11:28:25.891Z,40.83
2022-08-05T11:30:53.924Z,40.91
2022-08-05T11:33:21.728Z,40.83
2022-08-05T11:36:08.254Z,40.73
2022-08-05T11:38:37.340Z,40.58
2022-08-05T11:41:56.403Z,40.42
2022-08-05T11:44:07.224Z,40.73
2022-08-05T11:46:35.047Z,40.60
2022-08-05T11:49:02.119Z,40.23
2022-08-05T11:51:44.224Z,40.63
2022-08-05T11:54:16.190Z,40.66
2022-08-05T11:56:43.217Z,40.36
2022-08-05T11:59:17.368Z,40.46
2022-08-05T12:01:48.435Z,40.62
2022-08-05T12:04:19.580Z,40.31
2022-08-05T12:06:49.702Z,40.47
2022-08-05T12:09:20.247Z,40.58
2022-08-05T12:11:47.576Z,40.45
2022-08-05T12:14:14.670Z,40.53
2022-08-05T12:16:45.211Z,40.26
2022-08-05T12:20:25.538Z,40.38
2022-08-05T12:21:59.782Z,40.33
2022-08-05T12:24:28.372Z,40.30
2022-08-05T12:26:57.104Z,40.17
2022-08-05T12:29:24.733Z,40.30
2022-08-05T12:31:53.713Z,40.32
2022-08-05T12:34:23.758Z,40.11
2022-08-05T12:36:53.459Z,40.08
2022-08-05T12:39:20.680Z,40.17
2022-08-05T12:41:48.587Z,39.87
2022-08-05T12:44:28.571Z,39.93
2022-08-05T12:47:01.849Z,40.22
2022-08-05T12:49:29.171Z,40.06
2022-08-05T12:52:23.828Z,40.09
2022-08-05T12:54:55.456Z,40.04
2022-08-05T12:57:23.251Z,39.98
2022-08-05T13:01:57.814Z,39.96
2022-08-05T13:02:40.027Z,39.94
2022-08-05T13:05:07.939Z,39.99
2022-08-05T13:10:24.151Z,39.92
2022-08-05T13:12:58.082Z,39.99
2022-08-05T13:15:41.494Z,40.20
2022-08-05T13:18:12.641Z,39.77
2022-08-05T13:20:47.065Z,40.06
2022-08-05T13:23:14.187Z,39.84
2022-08-05T13:25:52.502Z,39.86
2022-08-05T13:28:26.861Z,39.76
2022-08-05T13:30:54.017Z,39.83
2022-08-05T13:34:22.288Z,39.91
2022-08-05T13:36:09.102Z,39.78
2022-08-05T13:38:41.937Z,39.73
2022-08-05T13:41:10.094Z,39.73
2022-08-05T13:43:44.792Z,39.74
2022-08-05T13:46:30.616Z,39.61
2022-08-05T13:49:06.059Z,39.51
2022-08-05T13:51:41.130Z,39.66
2022-08-05T13:54:11.932Z,39.65
2022-08-05T13:56:45.064Z,39.58
2022-08-05T13:59:19.433Z,39.37
2022-08-05T14:01:58.284Z,39.69
2022-08-05T14:04:49.637Z,39.58
2022-08-05T14:07:55.536Z,39.43
2022-08-05T14:10:04.854Z,39.45
2022-08-05T14:12:35.565Z,39.64
2022-08-05T14:15:05.971Z,39.44
2022-08-05T14:17:49.697Z,39.59
2022-08-05T14:20:17.571Z,39.52
2022-08-05T14:22:50.192Z,39.88
2022-08-05T14:25:21.717Z,39.44
2022-08-05T14:27:50.917Z,39.65
2022-08-05T14:30:20.273Z,39.76
2022-08-05T14:32:48.901Z,39.62
2022-08-05T14:35:16.319Z,39.68
2022-08-05T14:37:52.133Z,39.44
2022-08-05T14:40:24.492Z,39.88
2022-08-05T14:42:51.843Z,39.54
2022-08-05T14:45:19.005Z,39.29
2022-08-05T14:48:05.054Z,39.46
2022-08-05T14:50:33.074Z,39.60
2022-08-05T14:53:03.396Z,39.52
2022-08-05T14:55:39.154Z,39.60
2022-08-05T14:58:11.264Z,39.75
2022-08-05T15:00:39.439Z,39.64
2022-08-05T15:03:25.995Z,39.79
2022-08-05T15:06:08.160Z,39.77
2022-08-05T15:09:01.244Z,39.78
2022-08-05T15:11:52.546Z,39.84
2022-08-05T15:14:34.264Z,39.63
2022-08-05T15:17:02.063Z,39.61
2022-08-05T15:19:31.289Z,39.80
2022-08-05T15:22:00.329Z,39.80
2022-08-05T15:24:28.304Z,39.75
2022-08-05T15:26:55.954Z,39.59
2022-08-05T15:29:23.297Z,39.80
2022-08-05T15:31:52.995Z,40.25
2022-08-05T15:34:33.039Z,39.03
2022-08-05T15:37:06.249Z,39.09
2022-08-05T15:40:59.231Z,39.07
2022-08-05T15:42:53.610Z,39.48
2022-08-05T15:45:15.213Z,38.97
2022-08-05T15:47:42.454Z,39.06
2022-08-05T15:50:09.531Z,39.27
2022-08-05T15:52:53.676Z,39.07
2022-08-05T15:55:25.062Z,38.71
2022-08-05T15:58:09.380Z,38.69
2022-08-05T16:01:04.076Z,38.83
2022-08-05T16:03:32.763Z,39.11
2022-08-05T16:06:01.052Z,38.80
2022-08-05T16:08:30.487Z,38.78
2022-08-05T16:10:58.068Z,39.14
2022-08-05T16:13:34.501Z,39.57
2022-08-05T16:16:03.335Z,38.75
2022-08-05T16:18:30.686Z,39.07
2022-08-05T16:20:59.769Z,39.58
2022-08-05T16:23:54.306Z,38.48
2022-08-05T16:26:18.173Z,38.46
2022-08-05T16:28:45.233Z,38.14
2022-08-05T16:31:12.334Z,38.16
2022-08-05T16:33:41.363Z,38.20
2022-08-05T16:36:09.108Z,37.69
2022-08-05T16:38:36.232Z,37.27
2022-08-05T16:42:12.009Z,36.74
2022-08-05T16:43:56.391Z,37.27
2022-08-05T16:46:25.020Z,36.52
2022-08-05T16:48:52.185Z,36.26
2022-08-05T16:51:19.767Z,36.96
2022-08-05T16:54:05.932Z,37.29
2022-08-05T16:56:34.892Z,35.61
2022-08-05T16:59:07.574Z,35.49
2022-08-05T17:01:53.785Z,35.30
2022-08-05T17:04:23.925Z,36.39
2022-08-05T17:07:00.413Z,35.47
2022-08-05T17:09:28.384Z,36.79
2022-08-05T17:11:59.675Z,36.46
2022-08-05T17:14:34.157Z,36.38
2022-08-05T17:17:09.442Z,36.59
2022-08-05T17:19:43.891Z,36.72
2022-08-05T17:22:12.829Z,37.16
2022-08-05T17:24:57.627Z,36.50
2022-08-05T17:27:25.424Z,36.61
2022-08-05T17:29:54.321Z,36.75
2022-08-05T17:32:28.220Z,37.12
2022-08-05T17:34:55.455Z,36.72
2022-08-05T17:37:35.897Z,36.61
2022-08-05T17:40:10.879Z,36.34
2022-08-05T17:42:45.714Z,36.59
2022-08-05T17:45:21.075Z,36.77
2022-08-05T17:47:53.475Z,36.62
2022-08-05T17:50:29.534Z,35.83
2022-08-05T17:52:58.793Z,36.72
2022-08-05T17:55:27.199Z,36.86
2022-08-05T17:58:02.183Z,36.64
2022-08-05T18:00:29.744Z,37.21
2022-08-05T18:02:57.191Z,37.13
2022-08-05T18:05:28.147Z,37.22
2022-08-05T18:08:02.367Z,37.49
2022-08-05T18:10:39.784Z,38.43
2022-08-05T18:13:07.666Z,38.09
2022-08-05T18:15:39.703Z,38.16
2022-08-05T18:18:11.303Z,38.14
2022-08-05T18:20:38.833Z,37.92
2022-08-05T18:23:11.841Z,38.31
2022-08-05T18:25:39.606Z,38.44
2022-08-05T18:28:12.136Z,38.65
2022-08-05T18:30:43.359Z,39.18
2022-08-05T18:33:13.630Z,38.29
2022-08-05T18:36:01.294Z,38.29
2022-08-05T18:38:28.693Z,38.39
2022-08-05T18:41:56.853Z,38.55
2022-08-05T18:43:49.079Z,38.83
2022-08-05T18:46:19.733Z,38.27
2022-08-05T18:48:47.735Z,38.39
2022-08-05T18:52:06.709Z,38.29
2022-08-05T18:54:24.534Z,38.15
2022-08-05T18:56:52.097Z,37.88
2022-08-05T18:59:43.409Z,38.70
2022-08-05T19:02:11.241Z,38.91
2022-08-05T19:05:02.290Z,38.29
2022-08-05T19:07:45.377Z,38.36
2022-08-05T19:10:13.816Z,38.06
2022-08-05T19:12:40.846Z,38.32
2022-08-05T19:15:24.970Z,39.02
2022-08-05T19:18:08.755Z,39.83
2022-08-05T19:20:37.134Z,40.16
2022-08-05T19:24:03.523Z,40.62
2022-08-05T19:26:01.069Z,40.77
2022-08-05T19:28:29.563Z,41.67
2022-08-05T19:30:56.634Z,41.83
2022-08-05T19:33:35.858Z,42.49
2022-08-05T19:36:03.793Z,42.91
2022-08-05T19:38:33.749Z,42.90
2022-08-05T19:41:02.872Z,43.56
2022-08-05T19:44:06.916Z,42.42
2022-08-05T19:46:29.287Z,42.93
2022-08-05T19:48:57.598Z,43.60
2022-08-05T19:52:05.917Z,43.12
2022-08-05T19:54:21.781Z,42.48
2022-08-05T19:56:57.961Z,43.21
2022-08-05T19:59:55.751Z,43.52
2022-08-05T20:02:13.285Z,43.84
2022-08-05T20:04:43.213Z,43.99
2022-08-05T20:07:13.706Z,44.51
2022-08-05T20:09:54.458Z,44.49
2022-08-05T20:12:24.307Z,45.20
2022-08-05T20:14:52.475Z,45.83
2022-08-05T20:17:19.717Z,46.25
2022-08-05T20:19:50.814Z,46.33
2022-08-05T20:22:24.973Z,46.10
2022-08-05T20:24:53.962Z,46.02
2022-08-05T20:27:21.161Z,46.07
2022-08-05T20:29:57.563Z,45.63
2022-08-05T20:32:27.097Z,45.73
2022-08-05T20:35:03.563Z,46.03
2022-08-05T20:38:06.207Z,46.20
2022-08-05T20:40:18.003Z,46.46
2022-08-05T20:42:45.138Z,47.05
2022-08-05T20:45:12.218Z,47.44
2022-08-05T20:47:40.287Z,46.96
2022-08-05T20:50:07.697Z,46.36
2022-08-05T20:52:35.363Z,46.43
2022-08-05T20:55:55.269Z,46.43
2022-08-05T20:57:49.552Z,46.36
2022-08-05T21:00:40.962Z,46.26
2022-08-05T21:03:07.394Z,46.12
2022-08-05T21:05:38.319Z,45.82
2022-08-05T21:08:21.319Z,45.94
2022-08-05T21:10:55.235Z,45.73
2022-08-05T21:13:26.464Z,45.69
2022-08-05T21:16:12.711Z,45.69
2022-08-05T21:18:44.964Z,46.73
2022-08-05T21:21:12.106Z,50.43
2022-08-05T21:23:39.219Z,50.43
2022-08-05T21:26:08.202Z,51.50
2022-08-05T21:28:39.568Z,52.35
2022-08-05T21:31:06.620Z,52.50
2022-08-05T21:33:36.909Z,53.34
2022-08-05T21:36:07.281Z,53.97
2022-08-05T21:38:38.718Z,54.08
2022-08-05T21:41:08.252Z,54.12
2022-08-05T21:43:41.862Z,54.07
2022-08-05T21:46:09.098Z,54.04
2022-08-05T21:48:39.006Z,54.22
2022-08-05T21:51:25.283Z,54.63
2022-08-05T21:53:59.384Z,54.85
2022-08-05T21:56:30.792Z,54.46
2022-08-05T21:58:58.365Z,54.90
2022-08-05T22:01:25.761Z,55.18
2022-08-05T22:03:53.678Z,55.14
2022-08-05T22:06:22.934Z,54.86
2022-08-05T22:09:13.955Z,54.88
2022-08-05T22:11:42.555Z,54.67
2022-08-05T22:14:34.305Z,54.11
2022-08-05T22:17:00.158Z,54.22
2022-08-05T22:20:01.193Z,54.51
2022-08-05T22:22:27.375Z,53.71
2022-08-05T22:25:21.665Z,53.75
2022-08-05T22:28:08.744Z,52.76
2022-08-05T22:30:55.271Z,52.67
2022-08-05T22:33:55.809Z,52.28
2022-08-05T22:36:10.803Z,51.85
2022-08-05T22:38:42.571Z,51.15
2022-08-05T22:41:10.111Z,51.42
2022-08-05T22:43:38.306Z,51.39
2022-08-05T22:46:12.010Z,51.79
2022-08-05T22:48:41.023Z,51.73
2022-08-05T22:51:08.134Z,51.71
2022-08-05T22:53:43.189Z,51.89
2022-08-05T22:56:17.060Z,51.61
2022-08-05T22:58:44.108Z,51.59
2022-08-05T23:01:11.155Z,51.70
2022-08-05T23:03:57.809Z,51.50
2022-08-05T23:06:26.263Z,51.50
2022-08-05T23:08:53.611Z,51.58
2022-08-05T23:11:20.691Z,51.48
2022-08-05T23:13:51.822Z,51.27
2022-08-05T23:16:38.910Z,51.00
2022-08-05T23:19:11.119Z,51.13
2022-08-05T23:21:52.865Z,51.39
2022-08-05T23:24:21.438Z,50.76
2022-08-05T23:26:49.508Z,50.95
2022-08-05T23:29:16.766Z,50.76
2022-08-05T23:31:46.444Z,50.49
2022-08-05T23:34:16.467Z,50.66
2022-08-05T23:36:52.930Z,50.32
2022-08-05T23:39:31.931Z,50.56
2022-08-05T23:41:59.683Z,50.26
2022-08-05T23:44:27.996Z,50.16
2022-08-05T23:46:58.491Z,50.13
2022-08-05T23:49:34.114Z,50.11
2022-08-05T23:52:22.181Z,50.13
2022-08-05T23:54:52.433Z,49.90
2022-08-05T23:57:19.469Z,50.19
